Time;durP1;ratioP1;P1;durP2;ratioP2;P2;SDS_P1;SDS_P2;PMS_P1;PMS_P2;Temp;Humidity;BMP_temperature;BMP_pressure;BME280_temperature;BME280_humidity;BME280_pressure;Samples;Min_cycle;Max_cycle;Signal;HPM_P1;HPM_P2
2023/01/10 00:02:59;;;;;;;0.83;0.83;;;8.60;43.60;;;;;;10535368;28;20348;-79
2023/01/10 00:08:04;;;;;;;1.33;0.83;;;8.60;43.50;;;;;;10542762;28;20231;-81
2023/01/10 00:13:23;;;;;;;1.00;1.00;;;8.50;43.60;;;;;;10542715;28;20249;-81
2023/01/10 00:18:26;;;;;;;1.10;0.93;;;8.50;43.90;;;;;;10542863;28;20238;-81
2023/01/10 00:23:30;;;;;;;0.90;0.90;;;8.40;43.80;;;;;;10539324;28;20231;-81
2023/01/10 00:28:34;;;;;;;0.90;0.90;;;8.30;43.80;;;;;;10535478;28;20235;-80
2023/01/10 00:33:38;;;;;;;1.10;1.00;;;8.30;43.90;;;;;;10541507;28;20232;-81
2023/01/10 00:38:41;;;;;;;1.00;1.00;;;8.30;43.90;;;;;;10539327;28;20969;-81
2023/01/10 00:43:57;;;;;;;0.83;0.80;;;8.30;43.90;;;;;;10538903;28;20234;-81
2023/01/10 00:49:07;;;;;;;1.10;0.90;;;8.40;44.00;;;;;;10541765;28;20701;-81
2023/01/10 00:54:11;;;;;;;0.90;0.90;;;8.40;43.80;;;;;;10493652;28;20684;-83
2023/01/10 00:59:15;;;;;;;1.03;1.00;;;8.40;43.70;;;;;;10494215;28;20228;-82
2023/01/10 01:04:19;;;;;;;0.87;0.87;;;8.40;43.70;;;;;;10493608;28;20228;-82
2023/01/10 01:09:22;;;;;;;1.10;1.00;;;8.40;43.90;;;;;;10493364;28;20593;-83
2023/01/10 01:14:26;;;;;;;1.03;0.93;;;8.40;43.90;;;;;;10521645;28;20231;-82
2023/01/10 01:19:30;;;;;;;2.07;0.93;;;8.30;43.90;;;;;;10496783;28;20722;-83
2023/01/10 01:24:33;;;;;;;0.83;0.83;;;8.40;43.90;;;;;;10496586;28;20234;-83
2023/01/10 01:29:37;;;;;;;0.90;0.90;;;8.40;43.90;;;;;;10500112;28;20600;-82
2023/01/10 01:34:45;;;;;;;0.90;0.90;;;8.40;44.10;;;;;;10500337;28;20307;-83
2023/01/10 01:39:48;;;;;;;1.83;1.00;;;8.40;43.90;;;;;;10524057;28;20244;-82
2023/01/10 01:45:28;;;;;;;1.47;0.80;;;8.30;43.90;;;;;;10543030;28;20228;-82
2023/01/10 01:50:38;;;;;;;0.70;0.70;;;8.40;44.20;;;;;;10541991;28;20219;-82
2023/01/10 01:55:51;;;;;;;0.70;0.70;;;8.40;44.10;;;;;;10542545;28;20242;-82
2023/01/10 02:00:54;;;;;;;1.43;0.70;;;8.40;44.10;;;;;;10541141;28;20234;-82
2023/01/10 02:05:59;;;;;;;0.93;0.90;;;8.40;43.80;;;;;;10541307;28;20255;-82
2023/01/10 02:11:08;;;;;;;1.00;1.00;;;8.50;44.00;;;;;;10541117;28;20234;-83
2023/01/10 02:16:11;;;;;;;1.87;1.40;;;8.50;44.00;;;;;;10541576;28;20619;-83
2023/01/10 02:21:42;;;;;;;1.50;1.40;;;8.50;43.90;;;;;;10542497;28;20287;-83
2023/01/10 02:27:11;;;;;;;1.20;1.10;;;8.50;44.30;;;;;;10540666;28;20242;-83
2023/01/10 02:32:26;;;;;;;1.30;1.20;;;8.50;44.60;;;;;;10540028;28;20231;-82
2023/01/10 02:38:00;;;;;;;1.40;1.30;;;8.50;44.50;;;;;;10539473;28;20314;-83
2023/01/10 02:43:09;;;;;;;1.50;1.40;;;8.50;44.60;;;;;;10542235;28;20254;-83
2023/01/10 02:48:15;;;;;;;1.60;1.20;;;8.50;44.50;;;;;;10542931;28;20235;-83
2023/01/10 02:53:24;;;;;;;1.67;1.40;;;8.40;44.50;;;;;;10540349;28;20235;-83
2023/01/10 02:58:40;;;;;;;1.60;1.37;;;8.50;44.60;;;;;;10540117;28;20243;-83
2023/01/10 03:03:52;;;;;;;1.50;1.40;;;8.50;44.80;;;;;;10539222;28;20617;-82
2023/01/10 03:09:04;;;;;;;1.50;1.40;;;8.50;44.60;;;;;;10539930;28;20652;-83
2023/01/10 03:14:14;;;;;;;1.83;1.23;;;8.50;44.60;;;;;;10538745;28;20318;-82
2023/01/10 03:19:21;;;;;;;1.60;1.20;;;8.50;44.60;;;;;;10538937;28;20238;-83
2023/01/10 03:24:30;;;;;;;1.30;1.20;;;8.50;44.60;;;;;;10538122;28;20232;-83
2023/01/10 03:29:40;;;;;;;1.40;1.30;;;8.50;44.60;;;;;;10539299;28;20235;-82
2023/01/10 03:34:45;;;;;;;1.67;1.27;;;8.50;44.40;;;;;;10537829;28;20231;-82
2023/01/10 03:39:54;;;;;;;2.43;1.27;;;8.40;44.50;;;;;;10538034;28;20737;-83
2023/01/10 03:45:04;;;;;;;1.30;1.20;;;8.40;44.60;;;;;;10539478;28;20606;-83
2023/01/10 03:50:13;;;;;;;1.40;1.17;;;8.40;44.70;;;;;;10545116;28;20608;-83
2023/01/10 03:55:20;;;;;;;1.40;1.30;;;8.40;44.80;;;;;;10545514;28;20238;-83
2023/01/10 04:00:24;;;;;;;1.30;1.20;;;8.40;44.70;;;;;;10536050;28;20252;-83
2023/01/10 04:05:29;;;;;;;1.43;1.33;;;8.40;44.50;;;;;;10545149;28;20227;-83
2023/01/10 04:10:32;;;;;;;1.20;1.20;;;8.40;44.60;;;;;;10541496;28;20231;-83
2023/01/10 04:15:35;;;;;;;1.33;1.30;;;8.40;44.40;;;;;;10544900;28;20231;-83
2023/01/10 04:20:40;;;;;;;1.27;1.27;;;8.40;44.50;;;;;;10543614;28;20654;-83
2023/01/10 04:25:47;;;;;;;1.53;1.43;;;8.40;44.70;;;;;;10538135;28;20235;-83
2023/01/10 04:30:50;;;;;;;1.40;1.30;;;8.40;44.90;;;;;;10534515;28;20279;-83
2023/01/10 04:35:54;;;;;;;1.47;1.37;;;8.40;44.50;;;;;;10538221;28;20227;-83
2023/01/10 04:40:58;;;;;;;1.87;1.50;;;8.40;44.60;;;;;;10541260;28;20674;-83
2023/01/10 04:46:02;;;;;;;1.70;1.60;;;8.40;44.60;;;;;;10542403;28;20223;-83
2023/01/10 04:51:09;;;;;;;6.80;5.07;;;8.40;44.70;;;;;;10545082;28;20272;-83
2023/01/10 04:56:18;;;;;;;2.07;1.97;;;8.40;44.90;;;;;;10542263;28;20235;-82
2023/01/10 05:01:22;;;;;;;2.40;2.20;;;8.40;45.00;;;;;;10543261;28;20238;-81
2023/01/10 05:06:27;;;;;;;1.67;1.57;;;8.40;44.80;;;;;;10549879;28;20228;-82
2023/01/10 05:11:30;;;;;;;2.53;1.80;;;8.40;44.90;;;;;;10550813;28;20223;-81
2023/01/10 05:16:33;;;;;;;1.80;1.70;;;8.40;44.80;;;;;;10547034;28;20224;-81
2023/01/10 05:21:38;;;;;;;2.00;1.87;;;8.40;44.80;;;;;;10532843;28;20227;-81
2023/01/10 05:26:41;;;;;;;2.30;1.83;;;8.40;44.90;;;;;;10534833;28;20251;-80
2023/01/10 05:31:44;;;;;;;2.30;2.03;;;8.40;44.80;;;;;;10548223;28;20722;-80
2023/01/10 05:36:49;;;;;;;3.10;2.53;;;8.40;44.80;;;;;;10536894;28;20240;-81
2023/01/10 05:41:52;;;;;;;2.10;1.90;;;8.40;45.20;;;;;;10547220;28;20617;-80
2023/01/10 05:46:55;;;;;;;2.00;1.90;;;8.30;44.80;;;;;;10543017;28;20227;-80
2023/01/10 05:52:00;;;;;;;1.83;1.70;;;8.30;45.10;;;;;;10545581;28;20223;-81
2023/01/10 05:57:03;;;;;;;1.70;1.60;;;8.30;45.50;;;;;;10554231;28;20280;-80
2023/01/10 06:02:06;;;;;;;1.47;1.43;;;8.30;45.30;;;;;;10558862;28;20685;-81
2023/01/10 06:07:11;;;;;;;1.83;1.73;;;8.30;45.20;;;;;;10540099;28;20275;-81
2023/01/10 06:12:14;;;;;;;1.73;1.63;;;8.30;45.40;;;;;;10545820;28;20239;-80
2023/01/10 06:17:17;;;;;;;3.00;2.80;;;8.30;45.30;;;;;;10540331;28;20243;-79
2023/01/10 06:22:21;;;;;;;2.30;2.20;;;8.30;45.30;;;;;;10536264;28;20232;-79
2023/01/10 06:27:24;;;;;;;2.20;2.00;;;8.30;45.40;;;;;;10534694;28;20239;-79
2023/01/10 06:32:28;;;;;;;2.10;2.00;;;8.30;45.10;;;;;;10529944;28;20223;-78
2023/01/10 06:37:33;;;;;;;2.07;1.97;;;8.30;45.10;;;;;;10526945;28;20597;-77
2023/01/10 06:42:36;;;;;;;2.27;2.07;;;8.30;45.40;;;;;;10528350;28;20300;-77
2023/01/10 06:47:39;;;;;;;2.03;1.73;;;8.30;45.10;;;;;;10525944;28;20238;-77
2023/01/10 06:52:44;;;;;;;2.10;1.90;;;8.30;45.00;;;;;;10522534;28;20224;-77
2023/01/10 06:57:47;;;;;;;2.27;2.17;;;8.30;45.20;;;;;;10525881;28;20323;-77
2023/01/10 07:02:50;;;;;;;6.63;4.40;;;8.30;45.00;;;;;;10529812;28;20231;-77
2023/01/10 07:07:56;;;;;;;4.33;2.20;;;8.30;45.20;;;;;;10535740;28;20227;-77
2023/01/10 07:13:00;;;;;;;2.50;2.30;;;8.20;45.30;;;;;;10536552;28;20234;-77
2023/01/10 07:18:03;;;;;;;3.03;2.57;;;8.20;45.30;;;;;;10532499;28;20595;-77
2023/01/10 07:23:07;;;;;;;2.07;1.90;;;8.20;45.40;;;;;;10534477;28;20235;-78
2023/01/10 07:28:10;;;;;;;2.30;2.00;;;8.20;45.30;;;;;;10533649;28;20220;-78
2023/01/10 07:33:13;;;;;;;2.43;2.23;;;8.20;45.40;;;;;;10519484;28;20239;-78
2023/01/10 07:38:18;;;;;;;1.83;1.73;;;8.10;45.30;;;;;;10518749;28;20235;-79
2023/01/10 07:43:21;;;;;;;1.87;1.77;;;8.10;45.30;;;;;;10529942;28;25179;-79
2023/01/10 07:48:25;;;;;;;2.00;1.90;;;8.20;45.30;;;;;;10522035;28;20231;-78
2023/01/10 07:53:29;;;;;;;3.00;1.77;;;8.20;45.30;;;;;;10532444;28;20231;-77
2023/01/10 07:58:33;;;;;;;2.67;2.30;;;8.20;45.30;;;;;;10536113;28;20620;-77
2023/01/10 08:03:36;;;;;;;2.23;2.10;;;8.20;45.30;;;;;;10534526;28;20735;-78
2023/01/10 08:08:41;;;;;;;2.57;2.37;;;8.30;45.40;;;;;;10529962;28;20264;-79
2023/01/10 08:13:44;;;;;;;2.30;2.10;;;8.30;45.40;;;;;;10531484;28;20946;-79
2023/01/10 08:18:48;;;;;;;2.60;2.10;;;8.20;45.30;;;;;;10535267;28;20990;-79
2023/01/10 08:23:54;;;;;;;2.43;2.27;;;8.20;45.30;;;;;;10540153;28;20239;-79
2023/01/10 08:28:57;;;;;;;2.50;2.27;;;8.30;45.40;;;;;;10531509;28;20239;-79
2023/01/10 08:34:00;;;;;;;2.70;2.50;;;8.30;45.40;;;;;;10530287;28;20279;-78
2023/01/10 08:39:05;;;;;;;2.50;2.20;;;8.40;45.50;;;;;;10532119;28;20666;-78
2023/01/10 08:44:10;;;;;;;10.17;7.00;;;8.40;45.50;;;;;;10528457;28;21064;-77
2023/01/10 08:49:13;;;;;;;18.20;12.67;;;8.40;45.50;;;;;;10529175;28;20232;-80
2023/01/10 08:54:18;;;;;;;10.03;5.83;;;8.40;45.50;;;;;;10529342;28;20242;-79
2023/01/10 08:59:21;;;;;;;6.37;4.43;;;8.40;45.50;;;;;;10529986;28;20232;-79
2023/01/10 09:04:25;;;;;;;9.57;6.67;;;8.50;45.20;;;;;;10526650;28;20563;-79
2023/01/10 09:09:29;;;;;;;9.33;7.90;;;8.50;45.00;;;;;;10526152;28;20232;-80
2023/01/10 09:14:32;;;;;;;4.83;3.90;;;8.50;45.00;;;;;;10538551;28;20232;-80
2023/01/10 09:19:35;;;;;;;5.67;3.63;;;8.50;45.00;;;;;;10532030;28;20224;-79
2023/01/10 09:24:41;;;;;;;4.97;4.47;;;8.50;45.10;;;;;;10526898;28;20232;-79
2023/01/10 09:29:44;;;;;;;4.83;3.60;;;8.50;45.40;;;;;;10528856;28;20236;-79
2023/01/10 09:34:47;;;;;;;6.83;3.07;;;8.60;45.30;;;;;;10529759;28;20227;-79
2023/01/10 09:39:52;;;;;;;4.53;2.87;;;8.60;45.80;;;;;;10528078;28;20449;-79
2023/01/10 09:45:04;;;;;;;3.33;2.10;;;8.70;45.20;;;;;;10525244;28;20317;-79
2023/01/10 09:50:17;;;;;;;2.63;2.00;;;8.70;44.90;;;;;;10528639;28;20224;-77
2023/01/10 09:55:27;;;;;;;4.10;2.50;;;8.70;45.10;;;;;;10523474;28;20232;-79
2023/01/10 10:00:39;;;;;;;4.37;2.03;;;8.80;45.10;;;;;;10529238;28;20231;-78
2023/01/10 10:05:43;;;;;;;3.33;1.77;;;8.80;45.00;;;;;;10534906;28;20239;-77
2023/01/10 10:10:59;;;;;;;6.07;2.60;;;8.80;44.90;;;;;;10527256;28;20583;-80
2023/01/10 10:16:14;;;;;;;2.83;1.90;;;8.80;45.00;;;;;;10540285;28;20704;-82
2023/01/10 10:21:28;;;;;;;3.33;2.17;;;8.80;44.80;;;;;;10543028;28;20227;-81
2023/01/10 10:26:36;;;;;;;4.53;2.17;;;8.70;44.90;;;;;;10537167;28;20592;-83
2023/01/10 10:32:01;;;;;;;3.87;2.10;;;8.70;45.10;;;;;;10538142;28;20228;-83
2023/01/10 10:37:11;;;;;;;2.40;1.90;;;8.70;45.00;;;;;;10540143;28;20272;-79
2023/01/10 10:42:18;;;;;;;4.70;2.57;;;8.60;44.80;;;;;;10543644;28;20234;-79
2023/01/10 10:47:23;;;;;;;3.60;2.07;;;8.60;45.20;;;;;;10530264;28;20246;-79
2023/01/10 10:52:31;;;;;;;6.57;2.20;;;8.70;45.10;;;;;;10525324;28;20315;-78
2023/01/10 10:57:39;;;;;;;3.07;2.10;;;8.70;45.10;;;;;;10524759;28;20236;-79
2023/01/10 11:03:02;;;;;;;5.80;2.23;;;8.70;45.10;;;;;;10528803;28;20288;-79
2023/01/10 11:08:09;;;;;;;6.53;2.20;;;8.80;44.90;;;;;;10523753;28;20634;-80
2023/01/10 11:13:20;;;;;;;4.43;2.20;;;8.80;44.80;;;;;;10530917;28;20247;-80
2023/01/10 11:18:26;;;;;;;4.33;2.57;;;8.80;44.60;;;;;;10527724;28;20235;-79
2023/01/10 11:23:40;;;;;;;9.67;6.03;;;8.80;44.40;;;;;;10527993;28;20235;-79
2023/01/10 11:28:45;;;;;;;9.27;5.80;;;8.90;44.40;;;;;;10530869;28;20246;-79
2023/01/10 11:33:48;;;;;;;9.93;5.53;;;8.90;44.20;;;;;;10537777;28;20803;-79
2023/01/10 11:39:00;;;;;;;9.30;5.17;;;8.90;44.10;;;;;;10561659;28;20230;-79
2023/01/10 11:44:22;;;;;;;7.10;3.30;;;8.90;44.00;;;;;;10541977;28;20314;-79
2023/01/10 11:49:29;;;;;;;7.07;4.40;;;8.90;43.70;;;;;;10536405;28;20719;-79
2023/01/10 11:54:33;;;;;;;6.37;2.20;;;8.90;44.30;;;;;;10538243;28;20238;-79
2023/01/10 11:59:38;;;;;;;4.80;2.00;;;9.00;43.70;;;;;;10539479;28;20230;-78
2023/01/10 12:04:45;;;;;;;5.10;2.00;;;9.00;43.50;;;;;;10533668;28;20228;-78
2023/01/10 12:09:56;;;;;;;5.23;2.20;;;9.10;43.50;;;;;;10533739;28;20246;-78
2023/01/10 12:15:23;;;;;;;4.50;2.20;;;9.10;43.30;;;;;;10532922;28;20234;-77
2023/01/10 12:20:29;;;;;;;3.97;1.97;;;9.10;43.00;;;;;;10535164;28;20230;-78
2023/01/10 12:25:36;;;;;;;5.47;2.30;;;9.20;43.30;;;;;;10528845;28;20235;-79
2023/01/10 12:30:43;;;;;;;7.70;2.30;;;9.30;42.70;;;;;;10528016;28;20227;-78
2023/01/10 12:35:51;;;;;;;6.20;2.53;;;9.30;43.10;;;;;;10525739;28;20238;-78
2023/01/10 12:41:00;;;;;;;3.57;1.70;;;9.30;42.80;;;;;;10517128;28;20228;-78
2023/01/10 12:46:10;;;;;;;3.80;1.70;;;9.30;42.40;;;;;;10540577;28;20302;-77
2023/01/10 12:51:35;;;;;;;6.50;1.90;;;9.30;42.00;;;;;;10522051;28;20708;-79
2023/01/10 12:56:40;;;;;;;3.23;1.50;;;9.40;42.40;;;;;;10522883;28;20239;-79
2023/01/10 13:01:50;;;;;;;5.00;2.10;;;9.40;42.30;;;;;;10523337;28;20239;-79
2023/01/10 13:06:54;;;;;;;5.43;2.80;;;9.40;41.70;;;;;;10531577;28;20715;-82
2023/01/10 13:12:09;;;;;;;4.10;2.20;;;9.40;41.90;;;;;;10544532;28;20241;-82
2023/01/10 13:17:26;;;;;;;3.33;1.90;;;9.40;41.60;;;;;;10537238;28;20326;-82
2023/01/10 13:22:36;;;;;;;4.90;2.20;;;9.40;41.20;;;;;;10554627;28;20223;-82
2023/01/10 13:27:42;;;;;;;4.30;1.53;;;9.50;42.20;;;;;;10536905;28;20250;-83
2023/01/10 13:32:59;;;;;;;5.47;3.07;;;9.50;41.60;;;;;;10543706;28;20228;-81
2023/01/10 13:38:02;;;;;;;2.93;2.30;;;9.40;40.90;;;;;;10540850;28;20234;-82
2023/01/10 13:43:32;;;;;;;3.23;2.30;;;9.50;41.70;;;;;;10545336;28;20239;-83
2023/01/10 13:48:37;;;;;;;5.50;2.27;;;9.50;40.50;;;;;;10538735;28;20231;-84
2023/01/10 13:53:58;;;;;;;4.10;1.87;;;9.50;41.50;;;;;;10539682;28;20238;-83
2023/01/10 14:04:27;;;;;;;5.50;2.90;;;9.50;41.80;;;;;;10543188;28;20235;-83
2023/01/10 14:09:43;;;;;;;3.20;2.00;;;9.50;41.60;;;;;;10538704;28;20231;-83
2023/01/10 14:14:53;;;;;;;5.10;2.40;;;9.50;41.40;;;;;;10543984;28;20245;-82
2023/01/10 14:20:03;;;;;;;3.07;2.17;;;9.60;41.50;;;;;;10546044;28;20307;-83
2023/01/10 14:25:18;;;;;;;3.30;2.10;;;9.60;41.30;;;;;;10527647;28;20292;-82
2023/01/10 14:30:25;;;;;;;3.20;1.83;;;9.60;41.10;;;;;;10524708;28;20240;-81
2023/01/10 14:35:38;;;;;;;2.43;1.77;;;9.60;41.70;;;;;;10542040;28;20223;-81
2023/01/10 14:40:44;;;;;;;2.50;1.50;;;9.70;41.40;;;;;;10533728;28;20247;-82
2023/01/10 14:45:53;;;;;;;3.47;1.37;;;9.70;41.00;;;;;;10537306;28;20242;-85
2023/01/10 14:51:19;;;;;;;3.03;1.50;;;9.70;41.10;;;;;;10538682;28;20719;-85
2023/01/10 14:56:25;;;;;;;3.40;1.80;;;9.60;40.60;;;;;;10540970;28;20326;-85
2023/01/10 15:01:30;;;;;;;3.23;1.50;;;9.60;40.60;;;;;;10531784;28;20231;-81
2023/01/10 15:06:54;;;;;;;4.23;2.47;;;9.70;40.80;;;;;;10551319;28;20234;-81
2023/01/10 15:11:59;;;;;;;11.87;6.40;;;9.70;40.60;;;;;;10537037;28;20230;-81
2023/01/10 15:17:08;;;;;;;7.30;4.80;;;9.60;40.90;;;;;;10534353;28;20231;-82
2023/01/10 15:22:29;;;;;;;6.80;4.17;;;9.70;40.70;;;;;;10538448;28;20231;-81
2023/01/10 15:27:34;;;;;;;4.37;2.30;;;9.70;40.60;;;;;;10526518;28;20227;-81
2023/01/10 15:32:44;;;;;;;6.93;3.80;;;9.70;40.60;;;;;;10536683;28;20235;-83
2023/01/10 15:37:52;;;;;;;4.07;2.40;;;9.60;40.50;;;;;;10522540;28;20242;-80
2023/01/10 15:43:13;;;;;;;4.43;2.20;;;9.60;40.50;;;;;;10529929;28;20234;-83
2023/01/10 15:48:32;;;;;;;3.53;2.23;;;9.60;40.60;;;;;;10540043;28;20266;-81
2023/01/10 15:54:02;;;;;;;3.57;1.63;;;9.50;40.50;;;;;;10536084;28;20231;-81
2023/01/10 15:59:22;;;;;;;3.33;2.23;;;9.50;40.50;;;;;;10535000;28;20232;-84
2023/01/10 16:04:26;;;;;;;3.03;2.50;;;9.50;40.50;;;;;;10542085;28;20231;-84
2023/01/10 16:09:32;;;;;;;2.87;2.00;;;9.60;40.60;;;;;;10545633;28;20238;-83
2023/01/10 16:14:35;;;;;;;4.10;2.17;;;9.60;40.50;;;;;;10532330;28;20352;-81
2023/01/10 16:19:38;;;;;;;3.90;2.50;;;9.60;41.30;;;;;;10535101;28;20235;-79
2023/01/10 16:24:43;;;;;;;8.20;5.37;;;9.60;41.00;;;;;;10536319;28;20675;-80
2023/01/10 16:29:46;;;;;;;5.27;3.03;;;9.70;40.60;;;;;;10526071;28;20235;-82
2023/01/10 16:34:50;;;;;;;9.00;5.17;;;9.80;40.70;;;;;;10525770;28;20652;-81
2023/01/10 16:39:56;;;;;;;5.47;3.93;;;9.80;40.30;;;;;;10535732;28;20238;-82
2023/01/10 16:44:59;;;;;;;10.07;7.13;;;9.80;39.70;;;;;;10534889;28;20231;-82
2023/01/10 16:50:02;;;;;;;11.73;8.70;;;9.70;40.10;;;;;;10545975;28;20227;-83
2023/01/10 16:55:14;;;;;;;11.77;8.70;;;9.70;40.20;;;;;;10543974;28;20233;-82
2023/01/10 17:00:19;;;;;;;9.50;7.13;;;9.60;39.00;;;;;;10548445;28;20235;-82
2023/01/10 17:05:22;;;;;;;11.97;8.30;;;9.60;40.00;;;;;;10547874;28;20239;-83
2023/01/10 17:10:27;;;;;;;14.17;10.60;;;9.50;39.90;;;;;;10542118;28;20232;-82
2023/01/10 17:15:30;;;;;;;12.10;8.37;;;9.50;39.30;;;;;;10557988;28;20236;-82
2023/01/10 17:20:33;;;;;;;7.20;5.27;;;9.50;39.50;;;;;;10548774;28;20231;-83
2023/01/10 17:25:38;;;;;;;8.07;4.83;;;9.40;39.40;;;;;;10540603;28;20265;-83
2023/01/10 17:30:41;;;;;;;18.53;12.77;;;9.30;38.90;;;;;;10540607;28;20306;-81
2023/01/10 17:35:45;;;;;;;11.57;9.57;;;9.10;39.30;;;;;;10540650;28;20236;-81
2023/01/10 17:40:50;;;;;;;6.77;5.80;;;9.00;39.30;;;;;;10537014;28;20250;-81
2023/01/10 17:45:53;;;;;;;7.13;4.83;;;8.90;39.30;;;;;;10535854;28;20242;-81
2023/01/10 17:50:58;;;;;;;13.13;10.10;;;8.80;39.40;;;;;;10544228;28;20230;-82
2023/01/10 17:56:06;;;;;;;16.20;11.33;;;8.60;39.00;;;;;;10532829;28;20219;-85
2023/01/10 18:01:18;;;;;;;9.83;7.97;;;8.50;38.90;;;;;;10527909;28;20235;-79
2023/01/10 18:06:21;;;;;;;20.43;13.93;;;8.30;38.80;;;;;;10576741;28;20275;-80
2023/01/10 18:11:30;;;;;;;9.03;6.87;;;8.20;39.40;;;;;;10589669;28;20237;-79
2023/01/10 18:16:34;;;;;;;11.73;8.27;;;8.10;39.30;;;;;;10561685;28;20258;-79
2023/01/10 18:21:38;;;;;;;10.70;7.30;;;8.00;39.30;;;;;;10507754;28;20232;-79
2023/01/10 18:26:44;;;;;;;10.03;6.07;;;7.90;39.20;;;;;;10499071;28;20236;-80
2023/01/10 18:31:48;;;;;;;13.33;9.20;;;7.80;39.10;;;;;;10506763;28;20232;-79
2023/01/10 18:36:51;;;;;;;6.57;5.13;;;7.80;39.50;;;;;;10505070;28;20777;-79
2023/01/10 18:41:56;;;;;;;6.87;4.20;;;7.70;39.50;;;;;;10506264;28;20649;-79
2023/01/10 18:46:59;;;;;;;12.73;7.27;;;7.60;39.50;;;;;;10506287;28;20303;-79
2023/01/10 18:52:02;;;;;;;11.03;7.70;;;7.50;39.90;;;;;;10539584;28;20262;-79
2023/01/10 18:57:07;;;;;;;7.87;6.33;;;7.40;39.90;;;;;;10548017;28;20231;-79
2023/01/10 19:02:12;;;;;;;6.67;4.77;;;7.30;39.80;;;;;;10563204;28;21039;-79
2023/01/10 19:07:15;;;;;;;6.87;5.23;;;7.30;39.80;;;;;;10584133;28;20230;-79
2023/01/10 19:12:19;;;;;;;4.80;4.30;;;7.30;39.90;;;;;;10585351;28;20226;-79
2023/01/10 19:17:23;;;;;;;6.30;4.43;;;7.20;39.80;;;;;;10498308;28;20907;-79
2023/01/10 19:22:30;;;;;;;5.67;5.03;;;7.10;40.00;;;;;;10505132;28;20231;-79
2023/01/10 19:27:35;;;;;;;7.27;4.47;;;7.10;40.10;;;;;;10546907;28;20240;-79
2023/01/10 19:32:38;;;;;;;4.33;3.70;;;7.00;40.20;;;;;;10546124;28;20223;-79
2023/01/10 19:37:42;;;;;;;5.50;3.33;;;7.00;40.30;;;;;;10553059;28;20231;-79
2023/01/10 19:42:49;;;;;;;4.73;2.70;;;6.90;40.40;;;;;;10538693;28;20250;-79
2023/01/10 19:47:52;;;;;;;6.17;2.50;;;6.90;40.50;;;;;;10541889;28;20232;-79
2023/01/10 19:52:55;;;;;;;6.40;3.30;;;6.80;40.60;;;;;;10537673;28;20242;-79
2023/01/10 19:58:00;;;;;;;6.97;4.77;;;6.80;40.60;;;;;;10540808;28;20232;-79
2023/01/10 20:03:06;;;;;;;5.60;4.50;;;6.80;40.60;;;;;;10537550;28;20226;-79
2023/01/10 20:08:09;;;;;;;4.90;3.50;;;6.70;40.50;;;;;;10537335;28;20262;-79
2023/01/10 20:13:14;;;;;;;6.83;4.67;;;6.70;40.40;;;;;;10535154;28;20250;-79
2023/01/10 20:18:17;;;;;;;5.37;4.87;;;6.70;40.40;;;;;;10539072;28;20230;-79
2023/01/10 20:23:22;;;;;;;6.10;4.97;;;6.60;40.30;;;;;;10537401;28;20231;-79
2023/01/10 20:28:26;;;;;;;6.93;3.90;;;6.60;40.30;;;;;;10535473;28;20238;-79
2023/01/10 20:33:30;;;;;;;4.00;3.60;;;6.50;40.30;;;;;;10530815;28;20389;-78
2023/01/10 20:38:37;;;;;;;5.47;3.70;;;6.50;40.60;;;;;;10536602;28;20307;-78
2023/01/10 20:43:42;;;;;;;6.27;4.17;;;6.50;40.60;;;;;;10538867;28;20243;-79
2023/01/10 20:48:46;;;;;;;7.10;4.47;;;6.50;40.40;;;;;;10532636;28;20227;-78
2023/01/10 20:53:50;;;;;;;5.33;3.90;;;6.40;40.90;;;;;;10532333;28;20234;-78
2023/01/10 20:58:56;;;;;;;5.77;4.50;;;6.40;40.30;;;;;;10538210;28;20235;-78
2023/01/10 21:04:00;;;;;;;6.50;4.37;;;6.30;40.40;;;;;;10529249;28;20223;-76
2023/01/10 21:09:04;;;;;;;6.47;5.47;;;6.40;41.10;;;;;;10521093;28;20227;-77
2023/01/10 21:14:09;;;;;;;7.13;5.00;;;6.30;40.10;;;;;;10533740;28;20232;-77
2023/01/10 21:19:12;;;;;;;6.00;4.87;;;6.20;40.20;;;;;;10529868;28;20234;-77
2023/01/10 21:24:15;;;;;;;7.63;5.50;;;6.10;40.30;;;;;;10522020;28;20224;-77
2023/01/10 21:29:20;;;;;;;6.10;5.20;;;6.00;40.50;;;;;;10531117;28;20778;-77
2023/01/10 21:34:23;;;;;;;6.80;5.83;;;5.90;40.60;;;;;;10528293;28;20236;-77
2023/01/10 21:39:26;;;;;;;7.60;5.87;;;5.80;40.70;;;;;;10528518;28;20239;-77
2023/01/10 21:44:31;;;;;;;7.20;5.60;;;5.80;41.00;;;;;;10546959;28;20239;-78
2023/01/10 21:49:34;;;;;;;8.43;6.10;;;5.80;41.00;;;;;;10549128;22;20235;-71
2023/01/10 21:54:37;;;;;;;6.33;4.87;;;5.80;40.90;;;;;;10531292;28;20694;-69
2023/01/10 21:59:42;;;;;;;4.83;4.00;;;5.80;41.00;;;;;;10529258;28;20615;-69
2023/01/10 22:04:46;;;;;;;4.57;3.80;;;5.80;41.20;;;;;;10532833;28;20302;-69
2023/01/10 22:09:49;;;;;;;4.27;3.57;;;5.80;41.20;;;;;;10532178;28;20238;-69
2023/01/10 22:14:54;;;;;;;5.43;4.03;;;5.80;41.30;;;;;;10527732;28;20238;-68
2023/01/10 22:19:57;;;;;;;6.07;4.03;;;5.80;41.50;;;;;;10532313;28;20234;-69
2023/01/10 22:25:00;;;;;;;5.50;3.60;;;5.90;41.50;;;;;;10529015;28;20231;-69
2023/01/10 22:30:06;;;;;;;4.90;3.30;;;5.90;41.50;;;;;;10527448;28;20234;-68
2023/01/10 22:35:12;;;;;;;5.57;3.10;;;5.80;41.50;;;;;;10529271;28;20270;-69
2023/01/10 22:40:16;;;;;;;4.60;3.20;;;5.80;41.60;;;;;;10526759;28;20231;-69
2023/01/10 22:45:21;;;;;;;4.90;3.13;;;5.90;41.70;;;;;;10531760;28;20235;-69
2023/01/10 22:50:24;;;;;;;5.63;3.77;;;5.90;41.80;;;;;;10522734;28;20245;-68
2023/01/10 22:55:27;;;;;;;5.67;3.70;;;6.00;41.80;;;;;;10529390;28;20301;-67
2023/01/10 23:00:32;;;;;;;5.10;3.47;;;6.00;41.60;;;;;;10525309;28;20240;-67
2023/01/10 23:05:35;;;;;;;4.13;3.50;;;6.00;41.60;;;;;;10527268;28;20227;-67
2023/01/10 23:10:39;;;;;;;3.93;3.27;;;6.10;41.70;;;;;;10524084;28;20234;-67
2023/01/10 23:15:43;;;;;;;5.43;3.60;;;6.10;41.70;;;;;;10528586;28;20254;-68
2023/01/10 23:20:48;;;;;;;4.07;3.00;;;6.10;41.80;;;;;;10527016;28;20265;-68
2023/01/10 23:26:01;;;;;;;4.00;3.33;;;6.10;41.80;;;;;;10526836;28;20232;-69
2023/01/10 23:31:07;;;;;;;3.70;2.70;;;6.10;41.70;;;;;;10525105;28;20232;-68
2023/01/10 23:36:11;;;;;;;3.37;3.07;;;6.20;41.80;;;;;;10525590;28;20698;-69
2023/01/10 23:41:14;;;;;;;4.87;3.03;;;6.20;41.70;;;;;;10525791;28;20247;-69
2023/01/10 23:46:19;;;;;;;3.93;3.10;;;6.20;41.70;;;;;;10527852;28;20622;-69
2023/01/10 23:51:23;;;;;;;3.83;3.03;;;6.30;41.70;;;;;;10516702;28;20336;-69
2023/01/10 23:56:26;;;;;;;3.60;2.60;;;6.30;41.70;;;;;;10521606;28;20721;-69
